createdAt,value
2017-08-31T00:02:15.299Z,99327.27
2017-08-31T00:04:41.735Z,99320.23
2017-08-31T00:07:08.170Z,99318.72
2017-08-31T00:09:34.627Z,99319.38
2017-08-31T00:12:01.145Z,99291.02
2017-08-31T00:14:28.295Z,99314.52
2017-08-31T00:16:54.730Z,99308.03
2017-08-31T00:19:21.168Z,99309.00
2017-08-31T00:21:47.618Z,99317.98
2017-08-31T00:24:14.034Z,99316.38
2017-08-31T00:26:40.571Z,99316.11
2017-08-31T00:29:07.005Z,99314.17
2017-08-31T00:31:34.177Z,99314.12
2017-08-31T00:34:00.593Z,99308.99
2017-08-31T00:36:27.031Z,99307.64
2017-08-31T00:38:53.426Z,99309.09
2017-08-31T00:41:19.900Z,99303.93
2017-08-31T00:43:46.332Z,99299.05
2017-08-31T00:46:12.773Z,99296.50
2017-08-31T00:48:39.980Z,99304.85
2017-08-31T00:51:06.473Z,99301.09
2017-08-31T00:53:32.991Z,99305.67
2017-08-31T00:55:59.428Z,99303.66
2017-08-31T00:58:25.864Z,99292.92
2017-08-31T01:00:52.299Z,99301.80
2017-08-31T01:03:18.732Z,99303.81
2017-08-31T01:05:45.888Z,99298.05
2017-08-31T01:08:12.290Z,99300.73
2017-08-31T01:10:38.730Z,99300.80
2017-08-31T01:13:05.145Z,99301.08
2017-08-31T01:15:31.638Z,99301.58
2017-08-31T01:17:58.079Z,99293.48
2017-08-31T01:20:24.496Z,99296.50
2017-08-31T01:22:51.748Z,99297.98
2017-08-31T01:25:18.185Z,99295.67
2017-08-31T01:27:44.619Z,99298.25
2017-08-31T01:30:11.053Z,99292.53
2017-08-31T01:32:37.488Z,99291.36
2017-08-31T01:35:03.887Z,99282.81
2017-08-31T01:37:30.358Z,99289.52
2017-08-31T01:39:57.465Z,99285.74
2017-08-31T01:42:23.842Z,99285.64
2017-08-31T01:44:50.278Z,99281.91
2017-08-31T01:47:16.712Z,99288.52
2017-08-31T01:49:43.150Z,99263.78
2017-08-31T01:52:09.581Z,99275.73
2017-08-31T01:54:36.018Z,99275.66
2017-08-31T01:57:03.224Z,99274.44
2017-08-31T01:59:29.576Z,99272.00
2017-08-31T02:01:56.038Z,99269.75
2017-08-31T02:04:22.473Z,99273.47
2017-08-31T02:06:48.907Z,99277.91
2017-08-31T02:09:15.342Z,99276.06
2017-08-31T02:11:41.876Z,99279.63
2017-08-31T02:14:09.031Z,99278.00
2017-08-31T02:16:35.466Z,99279.11
2017-08-31T02:19:02.003Z,99272.09
2017-08-31T02:21:28.437Z,99275.00
2017-08-31T02:23:54.873Z,99278.88
2017-08-31T02:26:21.308Z,99278.03
2017-08-31T02:28:47.744Z,99278.47
2017-08-31T02:31:14.906Z,99271.31
2017-08-31T02:33:41.350Z,99268.97
2017-08-31T02:36:07.867Z,99270.39
2017-08-31T02:38:34.302Z,99272.19
2017-08-31T02:41:00.736Z,99272.65
2017-08-31T02:43:27.132Z,99269.66
2017-08-31T02:45:53.606Z,99284.45
2017-08-31T02:48:20.714Z,99287.69
2017-08-31T02:50:47.148Z,99288.82
2017-08-31T02:53:13.627Z,99284.92
2017-08-31T02:55:40.063Z,99286.22
2017-08-31T02:58:06.497Z,99281.14
2017-08-31T03:00:32.884Z,99288.08
2017-08-31T03:02:59.367Z,99290.73
2017-08-31T03:05:26.519Z,99289.38
2017-08-31T03:07:52.954Z,99292.33
2017-08-31T03:10:19.391Z,99284.80
2017-08-31T03:12:45.776Z,99289.47
2017-08-31T03:15:12.261Z,99287.28
2017-08-31T03:17:38.692Z,99282.41
2017-08-31T03:20:05.132Z,99288.41
2017-08-31T03:22:32.383Z,99282.85
2017-08-31T03:24:58.819Z,99288.06
2017-08-31T03:27:25.179Z,99289.83
2017-08-31T03:29:51.584Z,99291.61
2017-08-31T03:32:18.019Z,99293.35
2017-08-31T03:34:44.455Z,99295.88
2017-08-31T03:37:10.891Z,99290.33
2017-08-31T03:39:38.044Z,99294.31
2017-08-31T03:42:04.532Z,99295.02
2017-08-31T03:44:31.032Z,99297.97
2017-08-31T03:46:57.448Z,99302.19
2017-08-31T03:49:23.809Z,99302.34
2017-08-31T03:51:50.315Z,99300.16
2017-08-31T03:54:16.749Z,99308.20
2017-08-31T03:56:44.008Z,99312.31
2017-08-31T03:59:10.402Z,99312.95
2017-08-31T04:01:36.876Z,99319.09
2017-08-31T04:04:03.299Z,99307.28
2017-08-31T04:06:29.738Z,99314.17
2017-08-31T04:08:56.182Z,99301.63
2017-08-31T04:11:22.617Z,99312.27
2017-08-31T04:13:49.768Z,99316.27
2017-08-31T04:16:16.154Z,99318.14
2017-08-31T04:18:42.638Z,99318.97
2017-08-31T04:21:09.072Z,99318.03
2017-08-31T04:23:35.507Z,99317.36
2017-08-31T04:26:01.940Z,99324.39
2017-08-31T04:28:28.377Z,99320.77
2017-08-31T04:30:55.514Z,99326.84
2017-08-31T04:33:21.964Z,99326.48
2017-08-31T04:35:48.399Z,99331.47
2017-08-31T04:38:14.834Z,99329.81
2017-08-31T04:40:41.268Z,99331.92
2017-08-31T04:43:07.703Z,99332.44
2017-08-31T04:45:34.139Z,99332.44
2017-08-31T04:48:01.289Z,99337.90
2017-08-31T04:50:27.745Z,99334.50
2017-08-31T04:52:54.160Z,99338.77
2017-08-31T04:55:20.599Z,99342.22
2017-08-31T04:57:47.135Z,99339.63
2017-08-31T05:00:13.566Z,99337.87
2017-08-31T05:02:40.001Z,99339.84
2017-08-31T05:05:07.156Z,99334.73
2017-08-31T05:07:33.588Z,99339.82
2017-08-31T05:10:00.023Z,99345.01
2017-08-31T05:12:26.464Z,99335.88
2017-08-31T05:14:52.896Z,99337.81
2017-08-31T05:17:19.328Z,99342.61
2017-08-31T05:19:45.763Z,99339.30
2017-08-31T05:22:12.978Z,99339.79
2017-08-31T05:24:39.468Z,99331.31
2017-08-31T05:27:05.889Z,99338.72
2017-08-31T05:29:32.322Z,99340.63
2017-08-31T05:31:58.758Z,99340.95
2017-08-31T05:34:25.192Z,99342.12
2017-08-31T05:36:51.612Z,99339.14
2017-08-31T05:39:18.880Z,99341.25
2017-08-31T05:41:45.314Z,99323.32
2017-08-31T05:44:11.714Z,99342.12
2017-08-31T05:46:38.182Z,99343.94
2017-08-31T05:49:04.616Z,99343.57
2017-08-31T05:51:31.054Z,99345.30
2017-08-31T05:53:57.582Z,99324.02
2017-08-31T05:56:24.284Z,99344.61
2017-08-31T05:58:51.077Z,99353.82
2017-08-31T06:01:17.479Z,99350.65
2017-08-31T06:03:44.048Z,99352.82
2017-08-31T06:06:10.588Z,99356.43
2017-08-31T06:08:37.019Z,99357.06
2017-08-31T06:11:03.553Z,99334.84
2017-08-31T06:13:29.994Z,99321.48
2017-08-31T06:15:56.819Z,99353.86
2017-08-31T06:18:23.475Z,99352.95
2017-08-31T06:20:50.013Z,99350.39
2017-08-31T06:23:16.552Z,99340.33
2017-08-31T06:25:43.192Z,99355.09
2017-08-31T06:28:09.630Z,99353.10
2017-08-31T06:30:36.163Z,99354.31
2017-08-31T06:33:02.805Z,99354.29
2017-08-31T06:35:29.144Z,99359.77
2017-08-31T06:37:55.570Z,99358.18
2017-08-31T06:40:22.007Z,99357.62
2017-08-31T06:42:48.440Z,99361.50
2017-08-31T06:45:15.182Z,99359.95
2017-08-31T06:47:41.923Z,99359.20
2017-08-31T06:50:09.485Z,99360.00
2017-08-31T06:52:36.125Z,99364.84
2017-08-31T06:55:02.559Z,99365.41
2017-08-31T06:57:29.257Z,99360.66
2017-08-31T06:59:55.963Z,99366.19
2017-08-31T07:02:22.581Z,99365.97
2017-08-31T07:04:49.223Z,99374.34
2017-08-31T07:07:16.186Z,99372.78
2017-08-31T07:09:42.623Z,99375.02
2017-08-31T07:12:09.240Z,99372.72
2017-08-31T07:14:36.492Z,99367.41
2017-08-31T07:17:03.233Z,99382.97
2017-08-31T07:19:29.878Z,99365.62
2017-08-31T07:21:56.416Z,99373.42
2017-08-31T07:24:23.629Z,99379.97
2017-08-31T07:26:50.080Z,99365.55
2017-08-31T07:29:17.216Z,99377.78
2017-08-31T07:31:43.691Z,99378.86
2017-08-31T07:34:10.127Z,99371.13
2017-08-31T07:36:37.197Z,99373.09
2017-08-31T07:39:03.962Z,99372.15
2017-08-31T07:41:30.864Z,99369.08
2017-08-31T07:43:57.661Z,99368.61
2017-08-31T07:46:24.145Z,99368.89
2017-08-31T07:48:50.803Z,99364.07
2017-08-31T07:51:17.189Z,99366.20
2017-08-31T07:53:43.862Z,99360.28
2017-08-31T07:56:10.374Z,99364.27
2017-08-31T07:58:37.752Z,99367.41
2017-08-31T08:01:04.195Z,99354.11
2017-08-31T08:03:30.626Z,99357.33
2017-08-31T08:05:57.158Z,99354.33
2017-08-31T08:08:26.427Z,99354.53
2017-08-31T08:10:53.779Z,99347.22
2017-08-31T08:13:21.561Z,99352.27
2017-08-31T08:15:48.223Z,99347.43
2017-08-31T08:18:14.760Z,99343.81
2017-08-31T08:20:41.196Z,99348.26
2017-08-31T08:23:07.629Z,99342.70
2017-08-31T08:25:34.426Z,99342.92
2017-08-31T08:28:00.872Z,99341.48
2017-08-31T08:30:27.342Z,99341.90
2017-08-31T08:32:53.738Z,99344.30
2017-08-31T08:35:20.164Z,99342.77
2017-08-31T08:37:46.947Z,99334.52
2017-08-31T08:40:13.697Z,99336.59
2017-08-31T08:42:40.133Z,99333.31
2017-08-31T08:45:06.583Z,99336.50
2017-08-31T08:47:33.823Z,99334.00
2017-08-31T08:50:00.769Z,99333.75
2017-08-31T08:52:27.204Z,99331.89
2017-08-31T08:54:53.946Z,99334.59
2017-08-31T08:57:20.483Z,99330.87
2017-08-31T08:59:46.918Z,99323.75
2017-08-31T09:02:13.557Z,99323.21
2017-08-31T09:04:40.094Z,99323.02
2017-08-31T09:07:06.936Z,99325.88
2017-08-31T09:09:33.784Z,99317.78
2017-08-31T09:12:00.322Z,99318.62
2017-08-31T09:14:26.905Z,99314.05
2017-08-31T09:16:53.482Z,99311.78
2017-08-31T09:19:19.987Z,99313.73
2017-08-31T09:21:46.470Z,99313.40
2017-08-31T09:24:13.520Z,99310.81
2017-08-31T09:26:40.056Z,99309.44
2017-08-31T09:29:06.673Z,99298.58
2017-08-31T09:31:34.051Z,99300.77
2017-08-31T09:34:00.693Z,99304.90
2017-08-31T09:36:27.228Z,99294.14
2017-08-31T09:38:53.868Z,99296.53
2017-08-31T09:41:20.405Z,99295.79
2017-08-31T09:43:46.878Z,99293.40
2017-08-31T09:46:13.890Z,99299.42
2017-08-31T09:48:40.636Z,99295.86
2017-08-31T09:51:07.782Z,99294.53
2017-08-31T09:53:35.038Z,99287.41
2017-08-31T09:56:01.780Z,99284.51
2017-08-31T09:58:28.615Z,99282.41
2017-08-31T10:00:55.264Z,99281.05
2017-08-31T10:03:21.697Z,99276.39
2017-08-31T10:05:48.287Z,99277.02
2017-08-31T10:08:14.836Z,99274.21
2017-08-31T10:10:41.822Z,99277.46
2017-08-31T10:13:08.402Z,99274.30
2017-08-31T10:15:35.238Z,99266.41
2017-08-31T10:18:01.588Z,99268.84
2017-08-31T10:20:27.974Z,99242.91
2017-08-31T10:22:55.025Z,99256.23
2017-08-31T10:25:21.719Z,99256.08
2017-08-31T10:27:48.176Z,99256.08
2017-08-31T10:30:15.452Z,99253.08
2017-08-31T10:32:41.885Z,99240.02
2017-08-31T10:35:08.301Z,99255.59
2017-08-31T10:37:35.181Z,99253.66
2017-08-31T10:40:01.804Z,99254.15
2017-08-31T10:42:28.241Z,99258.01
2017-08-31T10:44:55.087Z,99253.50
2017-08-31T10:47:21.621Z,99250.39
2017-08-31T10:49:48.057Z,99241.76
2017-08-31T10:52:14.595Z,99243.54
2017-08-31T10:54:41.030Z,99241.80
2017-08-31T10:57:07.669Z,99237.59
2017-08-31T10:59:34.070Z,99237.03
2017-08-31T11:02:00.515Z,99228.50
2017-08-31T11:04:26.975Z,99225.55
2017-08-31T11:06:53.744Z,99221.84
2017-08-31T11:09:20.155Z,99219.66
2017-08-31T11:11:46.590Z,99223.81
2017-08-31T11:14:13.123Z,99214.54
2017-08-31T11:16:39.967Z,99214.36
2017-08-31T11:19:06.725Z,99208.64
2017-08-31T11:21:33.249Z,99199.41
2017-08-31T11:24:00.049Z,99196.45
2017-08-31T11:26:26.814Z,99200.00
2017-08-31T11:28:53.797Z,99196.94
2017-08-31T11:31:20.852Z,99194.56
2017-08-31T11:33:48.357Z,99187.31
2017-08-31T11:36:15.033Z,99184.60
2017-08-31T11:38:42.080Z,99181.63
2017-08-31T11:41:08.572Z,99179.03
2017-08-31T11:43:34.997Z,99181.19
2017-08-31T11:46:01.545Z,99182.48
2017-08-31T11:48:27.943Z,99174.56
2017-08-31T11:50:54.411Z,99173.33
2017-08-31T11:53:21.052Z,99172.60
2017-08-31T11:55:47.524Z,99169.13
2017-08-31T11:58:13.968Z,99151.47
2017-08-31T12:00:40.712Z,99161.19
2017-08-31T12:03:07.262Z,99160.89
2017-08-31T12:05:33.749Z,99154.90
2017-08-31T12:08:00.626Z,99155.75
2017-08-31T12:10:27.271Z,99134.98
2017-08-31T12:12:53.814Z,99145.63
2017-08-31T12:15:20.958Z,99145.02
2017-08-31T12:17:47.695Z,99139.29
2017-08-31T12:20:14.344Z,99135.86
2017-08-31T12:22:41.079Z,99130.03
2017-08-31T12:25:07.721Z,99124.41
2017-08-31T12:27:34.262Z,99126.30
2017-08-31T12:30:01.307Z,99125.30
2017-08-31T12:32:28.167Z,99125.66
2017-08-31T12:34:54.690Z,99121.81
2017-08-31T12:37:21.291Z,99121.22
2017-08-31T12:39:49.009Z,99118.20
2017-08-31T12:42:17.078Z,99113.49
2017-08-31T12:44:43.922Z,99108.66
2017-08-31T12:47:10.612Z,99112.78
2017-08-31T12:49:37.501Z,99116.14
2017-08-31T12:52:04.237Z,99104.94
2017-08-31T12:54:30.881Z,99086.98
2017-08-31T12:56:57.839Z,99108.19
2017-08-31T12:59:24.568Z,99096.61
2017-08-31T13:01:51.103Z,99104.28
2017-08-31T13:04:18.260Z,99109.87
2017-08-31T13:06:44.797Z,99105.97
2017-08-31T13:14:15.361Z,99099.95
2017-08-31T13:16:41.856Z,99105.91
2017-08-31T13:19:08.304Z,99097.53
2017-08-31T13:21:34.741Z,99098.78
2017-08-31T13:24:01.276Z,99089.22
2017-08-31T13:26:28.135Z,99093.37
2017-08-31T13:28:54.759Z,99094.64
2017-08-31T13:31:21.325Z,99092.73
2017-08-31T13:33:47.936Z,99088.47
2017-08-31T13:36:14.906Z,99096.91
2017-08-31T13:38:42.037Z,99087.63
2017-08-31T13:41:08.496Z,99083.50
2017-08-31T13:43:35.007Z,99085.70
2017-08-31T13:46:01.752Z,99083.23
2017-08-31T13:48:28.186Z,99080.34
2017-08-31T13:50:54.622Z,99073.53
2017-08-31T13:53:21.260Z,99072.33
2017-08-31T13:55:47.697Z,99051.55
2017-08-31T13:58:14.132Z,99067.09
2017-08-31T14:00:40.569Z,99062.65
2017-08-31T14:03:07.408Z,99058.30
2017-08-31T14:05:34.458Z,99061.28
2017-08-31T14:08:00.937Z,99059.76
2017-08-31T14:10:27.941Z,99058.72
2017-08-31T14:12:54.493Z,99052.17
2017-08-31T14:15:20.912Z,99052.30
2017-08-31T14:17:47.656Z,99045.56
2017-08-31T14:20:14.091Z,99040.20
2017-08-31T14:22:40.628Z,99033.70
2017-08-31T14:25:07.267Z,99044.50
2017-08-31T14:27:33.704Z,99042.41
2017-08-31T14:30:00.099Z,99030.55
2017-08-31T14:32:26.572Z,99031.39
2017-08-31T14:34:53.008Z,99023.02
2017-08-31T14:37:19.444Z,99023.37
2017-08-31T14:42:17.637Z,99023.81
2017-08-31T15:02:24.548Z,99020.55
2017-08-31T15:07:22.486Z,99013.13
2017-08-31T15:09:48.898Z,99016.20
2017-08-31T15:12:15.510Z,99013.14
2017-08-31T15:14:41.944Z,99008.20
2017-08-31T15:17:08.471Z,99010.03
2017-08-31T15:19:34.919Z,99005.52
2017-08-31T15:22:01.329Z,99003.77
2017-08-31T15:24:27.789Z,99010.87
2017-08-31T15:26:54.221Z,99002.36
2017-08-31T15:29:20.655Z,99002.95
2017-08-31T15:31:47.088Z,98997.31
2017-08-31T15:34:13.494Z,98994.02
2017-08-31T15:36:39.940Z,98992.25
2017-08-31T15:39:06.395Z,98991.65
2017-08-31T15:41:32.831Z,98992.24
2017-08-31T15:43:59.265Z,98989.29
2017-08-31T15:46:25.700Z,98989.72
2017-08-31T15:48:52.136Z,98986.52
2017-08-31T15:51:18.570Z,98979.42
2017-08-31T15:53:45.005Z,98986.73
2017-08-31T15:56:12.179Z,98988.92
2017-08-31T15:58:39.925Z,98983.77
2017-08-31T16:01:06.614Z,98980.61
2017-08-31T16:03:33.919Z,98980.05
2017-08-31T16:06:00.421Z,98986.39
2017-08-31T16:08:26.895Z,98982.05
2017-08-31T16:10:53.328Z,98978.50
2017-08-31T16:13:19.731Z,98983.22
2017-08-31T16:15:46.157Z,98979.27
2017-08-31T16:18:12.636Z,98980.45
2017-08-31T16:23:11.543Z,98981.80
2017-08-31T16:25:37.996Z,98988.30
2017-08-31T16:28:04.409Z,98985.52
2017-08-31T16:30:30.846Z,98984.73
2017-08-31T16:32:57.233Z,98992.59
2017-08-31T16:35:23.717Z,98993.34
2017-08-31T16:37:50.153Z,98997.05
2017-08-31T16:40:16.587Z,98992.86
2017-08-31T16:42:42.966Z,98998.94
2017-08-31T16:45:09.355Z,99001.06
2017-08-31T16:47:35.788Z,98999.42
2017-08-31T16:50:02.204Z,99000.14
2017-08-31T16:52:28.556Z,98999.88
2017-08-31T16:54:55.099Z,98997.86
2017-08-31T16:57:21.528Z,99007.81
2017-08-31T16:59:47.962Z,99002.25
2017-08-31T17:02:14.397Z,99004.16
2017-08-31T17:04:40.837Z,99005.28
2017-08-31T17:07:07.268Z,99007.79
2017-08-31T17:09:33.721Z,99010.44
2017-08-31T17:12:00.137Z,99010.70
2017-08-31T17:14:26.575Z,99001.70
2017-08-31T17:16:53.109Z,99012.31
2017-08-31T17:19:20.162Z,99007.09
2017-08-31T17:21:46.547Z,99013.64
2017-08-31T17:24:13.029Z,99002.40
2017-08-31T17:26:39.463Z,99010.65
2017-08-31T17:29:05.899Z,99003.02
2017-08-31T17:31:32.334Z,99022.56
2017-08-31T17:33:58.730Z,99032.27
2017-08-31T17:36:25.920Z,99016.36
2017-08-31T17:38:52.355Z,99021.92
2017-08-31T17:41:18.770Z,99026.58
2017-08-31T17:43:45.225Z,99032.42
2017-08-31T17:46:11.614Z,99035.66
2017-08-31T17:48:38.094Z,99033.44
2017-08-31T17:51:04.529Z,99041.55
2017-08-31T17:53:31.785Z,99040.08
2017-08-31T17:55:58.354Z,99043.86
2017-08-31T17:58:24.860Z,99043.61
2017-08-31T18:00:51.298Z,99046.10
2017-08-31T18:03:17.675Z,99042.13
2017-08-31T18:05:44.166Z,99045.80
2017-08-31T18:08:10.599Z,99052.61
2017-08-31T18:10:37.874Z,99057.53
2017-08-31T18:13:04.237Z,99058.63
2017-08-31T18:15:30.724Z,99063.20
2017-08-31T18:17:57.107Z,99063.50
2017-08-31T18:20:23.595Z,99068.23
2017-08-31T18:22:50.029Z,99066.48
2017-08-31T18:25:16.463Z,99073.19
2017-08-31T18:27:43.718Z,99070.83
2017-08-31T18:30:10.150Z,99069.68
2017-08-31T18:32:36.585Z,99061.88
2017-08-31T18:35:03.020Z,99063.06
2017-08-31T18:37:29.557Z,99042.05
2017-08-31T18:39:55.945Z,99065.30
2017-08-31T18:42:22.426Z,99061.92
2017-08-31T18:44:49.579Z,99065.53
2017-08-31T18:47:16.012Z,99069.42
2017-08-31T18:49:42.448Z,99075.26
2017-08-31T18:52:08.837Z,99073.63
2017-08-31T18:54:35.316Z,99069.41
2017-08-31T18:57:01.807Z,99073.67
2017-08-31T18:59:28.292Z,99072.94
2017-08-31T19:01:55.442Z,99068.81
2017-08-31T19:04:21.878Z,99064.09
2017-08-31T19:06:48.312Z,99065.53
2017-08-31T19:09:14.744Z,99069.78
2017-08-31T19:11:41.182Z,99067.88
2017-08-31T19:14:07.618Z,99068.08
2017-08-31T19:16:34.051Z,99065.01
2017-08-31T19:19:01.306Z,99063.69
2017-08-31T19:21:27.741Z,99067.65
2017-08-31T19:23:54.313Z,99074.09
2017-08-31T19:26:20.669Z,99076.14
2017-08-31T19:28:47.151Z,99067.36
2017-08-31T19:31:13.582Z,99067.82
2017-08-31T19:33:40.017Z,99067.77
2017-08-31T19:36:07.120Z,99067.98
2017-08-31T19:38:33.608Z,99071.84
2017-08-31T19:41:00.040Z,99076.97
2017-08-31T19:43:26.441Z,99071.65
2017-08-31T19:45:52.912Z,99081.61
2017-08-31T19:48:19.341Z,99082.43
2017-08-31T19:50:45.779Z,99079.31
2017-08-31T19:53:13.032Z,99079.89
2017-08-31T19:55:39.469Z,99081.11
2017-08-31T19:58:05.902Z,99076.22
2017-08-31T20:00:32.338Z,99079.12
2017-08-31T20:02:58.775Z,99085.48
2017-08-31T20:05:25.205Z,99084.22
2017-08-31T20:07:51.643Z,99076.55
2017-08-31T20:10:18.898Z,99075.84
2017-08-31T20:12:45.331Z,99074.22
2017-08-31T20:15:11.765Z,99069.13
2017-08-31T20:17:38.202Z,99072.98
2017-08-31T20:20:04.635Z,99082.64
2017-08-31T20:22:31.071Z,99082.98
2017-08-31T20:24:57.509Z,99073.20
2017-08-31T20:27:24.659Z,99075.75
2017-08-31T20:29:51.112Z,99076.62
2017-08-31T20:32:17.527Z,99076.52
2017-08-31T20:34:43.961Z,99074.28
2017-08-31T20:37:10.350Z,99069.38
2017-08-31T20:39:36.832Z,99068.88
2017-08-31T20:42:03.266Z,99058.92
2017-08-31T20:44:30.417Z,99059.63
2017-08-31T20:46:56.853Z,99061.13
2017-08-31T20:49:23.289Z,99056.56
2017-08-31T20:51:49.719Z,99051.94
2017-08-31T20:54:16.159Z,99048.27
2017-08-31T20:56:42.596Z,99051.81
2017-08-31T20:59:08.980Z,99043.61
2017-08-31T21:01:36.178Z,99048.95
2017-08-31T21:04:02.616Z,99047.38
2017-08-31T21:06:29.055Z,99043.66
2017-08-31T21:08:55.442Z,99048.74
2017-08-31T21:11:21.910Z,99047.16
2017-08-31T21:13:48.354Z,99033.75
2017-08-31T21:16:14.789Z,99036.24
2017-08-31T21:18:41.941Z,99040.37
2017-08-31T21:21:08.479Z,99034.20
2017-08-31T21:23:34.912Z,99031.66
2017-08-31T21:26:01.347Z,99025.57
2017-08-31T21:28:27.781Z,99025.51
2017-08-31T21:30:54.216Z,99028.22
2017-08-31T21:33:20.651Z,99027.53
2017-08-31T21:35:47.804Z,99026.62
2017-08-31T21:38:14.238Z,99025.16
2017-08-31T21:40:40.675Z,99027.14
2017-08-31T21:43:07.070Z,99022.79
2017-08-31T21:45:33.543Z,99025.29
2017-08-31T21:47:59.980Z,99015.24
2017-08-31T21:50:26.412Z,99022.97
2017-08-31T21:52:53.564Z,99018.31
2017-08-31T21:55:19.947Z,99017.49
2017-08-31T21:57:46.438Z,99011.80
2017-08-31T22:00:12.869Z,99012.16
2017-08-31T22:02:39.304Z,99017.23
2017-08-31T22:05:05.738Z,99012.75
2017-08-31T22:07:32.161Z,99019.80
2017-08-31T22:09:59.329Z,99014.27
2017-08-31T22:12:25.760Z,99012.05
2017-08-31T22:14:52.197Z,99012.92
2017-08-31T22:17:18.630Z,99010.20
2017-08-31T22:19:45.065Z,99014.05
2017-08-31T22:22:11.497Z,99011.69
2017-08-31T22:24:37.936Z,99014.53
2017-08-31T22:27:05.086Z,99008.83
2017-08-31T22:29:31.521Z,99005.56
2017-08-31T22:31:57.959Z,99007.48
2017-08-31T22:34:24.391Z,99006.81
2017-08-31T22:36:50.825Z,99009.76
2017-08-31T22:39:17.244Z,98997.45
2017-08-31T22:41:43.686Z,98997.27
2017-08-31T22:44:10.844Z,98995.72
2017-08-31T22:46:37.281Z,98994.71
2017-08-31T22:49:03.716Z,98994.20
2017-08-31T22:51:30.152Z,98993.22
2017-08-31T22:53:56.589Z,98991.52
2017-08-31T22:56:23.024Z,98998.45
2017-08-31T22:58:49.457Z,98998.97
2017-08-31T23:01:16.607Z,98999.93
2017-08-31T23:03:43.050Z,99004.87
2017-08-31T23:06:09.483Z,98997.02
2017-08-31T23:08:35.916Z,99001.63
2017-08-31T23:11:02.454Z,98993.38
2017-08-31T23:13:28.886Z,98988.00
2017-08-31T23:15:55.323Z,98993.96
2017-08-31T23:18:22.475Z,98983.91
2017-08-31T23:20:48.907Z,98978.78
2017-08-31T23:23:15.338Z,98978.67
2017-08-31T23:25:41.777Z,98974.77
2017-08-31T23:28:08.212Z,98984.75
2017-08-31T23:30:34.646Z,98979.37
2017-08-31T23:33:01.037Z,98979.41
2017-08-31T23:35:28.227Z,98981.59
2017-08-31T23:37:54.671Z,98978.52
2017-08-31T23:40:21.052Z,98979.89
2017-08-31T23:42:47.536Z,98971.35
2017-08-31T23:45:13.972Z,98973.81
2017-08-31T23:47:40.409Z,98974.11
2017-08-31T23:50:06.859Z,98966.52
2017-08-31T23:52:33.994Z,98973.63
2017-08-31T23:55:00.430Z,98968.95
2017-08-31T23:57:26.863Z,98964.24
2017-08-31T23:59:53.297Z,98961.25
